Graham, Texas
Current Conditions -  °F | °C
As of 12:30 PM on Wednesday 26 Nov 2014 (Local Time) from KRPH Reporting Station
Clear Clear  
Wind Chill: 59°   Ceiling: Unl
Heat Index: 59°   Visibility: 10mi
Dew Point: 36°   Wind: 8mph
Humidity: 43%   Direction: 350°N
Pressure: 30.2"   Gusts: NA
Location:  33.11°N, 98.59°W
Report Text: KRPH 261830Z AUTO 35007KT 10SM CLR 15/02 A3020 RMK AO2 T01480024
Loading
Personal Weather Stations






























Interactive Weather Map New forecast layout! Learn more

10-Day Weather Forecast

Advertisements
Track Severe Weather on mobile